sensor_id;sensor_type;location;lat;lon;timestamp;pressure;altitude;pressure_sealevel;temperature;humidity
70730;BME280;58315;53.336;55.932;2022-08-19T00:02:23;100954.28;;;18.77;33.55
70730;BME280;58315;53.336;55.932;2022-08-19T00:04:49;100960.31;;;18.79;33.58
70730;BME280;58315;53.336;55.932;2022-08-19T00:07:19;100970.41;;;18.68;33.94
70730;BME280;58315;53.336;55.932;2022-08-19T00:09:45;100966.53;;;18.62;33.95
70730;BME280;58315;53.336;55.932;2022-08-19T00:12:11;100971.50;;;18.57;34.14
70730;BME280;58315;53.336;55.932;2022-08-19T00:14:37;100972.81;;;18.53;34.29
70730;BME280;58315;53.336;55.932;2022-08-19T00:17:04;100979.44;;;18.41;34.55
70730;BME280;58315;53.336;55.932;2022-08-19T00:19:30;100985.38;;;18.35;34.52
70730;BME280;58315;53.336;55.932;2022-08-19T00:21:56;100997.41;;;18.30;34.48
70730;BME280;58315;53.336;55.932;2022-08-19T00:24:23;101003.69;;;18.21;34.99
70730;BME280;58315;53.336;55.932;2022-08-19T00:26:49;101013.53;;;18.03;35.23
70730;BME280;58315;53.336;55.932;2022-08-19T00:29:17;101018.78;;;17.95;35.30
70730;BME280;58315;53.336;55.932;2022-08-19T00:31:45;101031.69;;;17.81;35.36
70730;BME280;58315;53.336;55.932;2022-08-19T00:34:13;101032.56;;;17.72;35.43
70730;BME280;58315;53.336;55.932;2022-08-19T00:36:42;101041.56;;;17.71;35.46
70730;BME280;58315;53.336;55.932;2022-08-19T00:39:09;101041.91;;;17.58;35.65
70730;BME280;58315;53.336;55.932;2022-08-19T00:41:37;101047.09;;;17.70;35.53
70730;BME280;58315;53.336;55.932;2022-08-19T00:44:10;101054.06;;;17.80;35.45
70730;BME280;58315;53.336;55.932;2022-08-19T00:46:40;101056.91;;;17.79;35.26
70730;BME280;58315;53.336;55.932;2022-08-19T00:49:21;101063.25;;;17.78;35.50
70730;BME280;58315;53.336;55.932;2022-08-19T00:51:52;101060.41;;;17.79;35.64
70730;BME280;58315;53.336;55.932;2022-08-19T00:54:19;101059.75;;;17.68;35.92
70730;BME280;58315;53.336;55.932;2022-08-19T00:56:47;101064.38;;;17.66;36.63
70730;BME280;58315;53.336;55.932;2022-08-19T00:59:14;101069.63;;;17.57;36.96
70730;BME280;58315;53.336;55.932;2022-08-19T01:01:42;101076.00;;;17.47;37.22
70730;BME280;58315;53.336;55.932;2022-08-19T01:04:09;101072.03;;;17.51;37.45
70730;BME280;58315;53.336;55.932;2022-08-19T01:06:37;101074.31;;;17.55;37.24
70730;BME280;58315;53.336;55.932;2022-08-19T01:09:04;101079.66;;;17.55;37.26
70730;BME280;58315;53.336;55.932;2022-08-19T01:11:32;101084.44;;;17.52;37.66
70730;BME280;58315;53.336;55.932;2022-08-19T01:13:58;101090.38;;;17.46;37.93
70730;BME280;58315;53.336;55.932;2022-08-19T01:16:26;101087.78;;;17.54;37.86
70730;BME280;58315;53.336;55.932;2022-08-19T01:18:53;101085.03;;;17.46;37.65
70730;BME280;58315;53.336;55.932;2022-08-19T01:23:59;101103.91;;;17.34;38.20
70730;BME280;58315;53.336;55.932;2022-08-19T01:26:26;101110.91;;;17.35;38.30
70730;BME280;58315;53.336;55.932;2022-08-19T01:28:55;101120.63;;;17.36;38.11
70730;BME280;58315;53.336;55.932;2022-08-19T01:31:24;101117.00;;;17.28;38.20
70730;BME280;58315;53.336;55.932;2022-08-19T01:33:52;101124.16;;;17.27;37.95
70730;BME280;58315;53.336;55.932;2022-08-19T01:39:05;101138.47;;;17.36;37.66
70730;BME280;58315;53.336;55.932;2022-08-19T01:41:33;101144.38;;;17.40;37.52
70730;BME280;58315;53.336;55.932;2022-08-19T01:43:59;101143.25;;;17.42;37.32
70730;BME280;58315;53.336;55.932;2022-08-19T01:46:26;101146.19;;;17.49;37.32
70730;BME280;58315;53.336;55.932;2022-08-19T01:48:52;101150.97;;;17.45;37.37
70730;BME280;58315;53.336;55.932;2022-08-19T01:51:18;101148.03;;;17.48;37.30
70730;BME280;58315;53.336;55.932;2022-08-19T01:53:48;101145.47;;;17.56;37.43
70730;BME280;58315;53.336;55.932;2022-08-19T01:56:15;101140.09;;;17.66;37.51
70730;BME280;58315;53.336;55.932;2022-08-19T01:58:47;101150.53;;;17.59;37.71
70730;BME280;58315;53.336;55.932;2022-08-19T02:01:16;101162.34;;;17.57;37.90
70730;BME280;58315;53.336;55.932;2022-08-19T02:03:42;101158.81;;;17.56;37.84
70730;BME280;58315;53.336;55.932;2022-08-19T02:06:09;101164.16;;;17.66;37.91
70730;BME280;58315;53.336;55.932;2022-08-19T02:08:37;101169.03;;;17.71;37.80
70730;BME280;58315;53.336;55.932;2022-08-19T02:11:03;101169.88;;;17.71;37.84
70730;BME280;58315;53.336;55.932;2022-08-19T02:13:30;101169.88;;;17.71;37.95
70730;BME280;58315;53.336;55.932;2022-08-19T02:16:18;101177.63;;;17.74;38.08
70730;BME280;58315;53.336;55.932;2022-08-19T02:18:44;101190.44;;;17.71;38.42
70730;BME280;58315;53.336;55.932;2022-08-19T02:21:11;101188.19;;;17.76;37.79
70730;BME280;58315;53.336;55.932;2022-08-19T02:23:36;101194.38;;;17.76;37.86
70730;BME280;58315;53.336;55.932;2022-08-19T02:26:02;101201.25;;;17.79;37.01
70730;BME280;58315;53.336;55.932;2022-08-19T02:28:28;101196.06;;;17.68;36.90
70730;BME280;58315;53.336;55.932;2022-08-19T02:30:54;101191.56;;;17.68;37.15
70730;BME280;58315;53.336;55.932;2022-08-19T02:33:20;101190.28;;;17.72;36.86
70730;BME280;58315;53.336;55.932;2022-08-19T02:35:46;101187.78;;;17.61;36.76
70730;BME280;58315;53.336;55.932;2022-08-19T02:38:14;101204.69;;;17.52;36.95
70730;BME280;58315;53.336;55.932;2022-08-19T02:41:02;101204.66;;;17.62;36.89
70730;BME280;58315;53.336;55.932;2022-08-19T02:43:33;101210.72;;;17.64;36.90
70730;BME280;58315;53.336;55.932;2022-08-19T02:46:21;101204.34;;;17.74;36.77
70730;BME280;58315;53.336;55.932;2022-08-19T02:48:49;101204.78;;;17.79;36.86
70730;BME280;58315;53.336;55.932;2022-08-19T02:51:22;101205.88;;;17.87;36.75
70730;BME280;58315;53.336;55.932;2022-08-19T02:53:48;101213.50;;;17.81;36.74
70730;BME280;58315;53.336;55.932;2022-08-19T02:56:15;101212.78;;;17.79;37.16
70730;BME280;58315;53.336;55.932;2022-08-19T02:58:42;101217.16;;;17.80;37.19
70730;BME280;58315;53.336;55.932;2022-08-19T03:01:09;101217.47;;;17.77;37.30
70730;BME280;58315;53.336;55.932;2022-08-19T03:03:37;101216.75;;;17.75;37.58
70730;BME280;58315;53.336;55.932;2022-08-19T03:06:14;101219.06;;;17.98;37.26
70730;BME280;58315;53.336;55.932;2022-08-19T03:08:45;101219.50;;;17.93;37.17
70730;BME280;58315;53.336;55.932;2022-08-19T03:11:18;101218.59;;;18.02;36.68
70730;BME280;58315;53.336;55.932;2022-08-19T03:13:44;101213.13;;;18.04;36.47
70730;BME280;58315;53.336;55.932;2022-08-19T03:16:11;101223.25;;;18.10;36.79
70730;BME280;58315;53.336;55.932;2022-08-19T03:18:38;101227.03;;;18.17;36.46
70730;BME280;58315;53.336;55.932;2022-08-19T03:21:05;101226.47;;;18.14;36.46
70730;BME280;58315;53.336;55.932;2022-08-19T03:23:32;101233.34;;;18.16;36.42
70730;BME280;58315;53.336;55.932;2022-08-19T03:25:58;101226.38;;;18.33;36.19
70730;BME280;58315;53.336;55.932;2022-08-19T03:28:24;101233.75;;;18.49;36.19
70730;BME280;58315;53.336;55.932;2022-08-19T03:30:57;101239.09;;;18.76;36.03
70730;BME280;58315;53.336;55.932;2022-08-19T03:33:24;101241.31;;;18.81;35.60
70730;BME280;58315;53.336;55.932;2022-08-19T03:36:19;101240.84;;;19.21;35.28
70730;BME280;58315;53.336;55.932;2022-08-19T03:38:58;101241.03;;;20.58;33.87
70730;BME280;58315;53.336;55.932;2022-08-19T03:41:30;101235.06;;;22.34;31.85
70730;BME280;58315;53.336;55.932;2022-08-19T03:43:57;101237.81;;;23.87;30.14
70730;BME280;58315;53.336;55.932;2022-08-19T03:46:28;101239.97;;;25.37;29.46
70730;BME280;58315;53.336;55.932;2022-08-19T03:48:57;101239.91;;;26.56;27.29
70730;BME280;58315;53.336;55.932;2022-08-19T03:51:27;101239.03;;;27.43;24.48
70730;BME280;58315;53.336;55.932;2022-08-19T03:53:55;101250.03;;;28.01;24.36
70730;BME280;58315;53.336;55.932;2022-08-19T03:56:21;101248.22;;;28.47;24.68
70730;BME280;58315;53.336;55.932;2022-08-19T03:59:06;101258.28;;;29.16;22.90
70730;BME280;58315;53.336;55.932;2022-08-19T04:06:30;101272.97;;;30.27;21.79
70730;BME280;58315;53.336;55.932;2022-08-19T04:09:37;101266.69;;;30.08;21.51
70730;BME280;58315;53.336;55.932;2022-08-19T04:13:00;101269.88;;;30.90;21.79
70730;BME280;58315;53.336;55.932;2022-08-19T04:15:32;101267.66;;;30.99;21.21
70730;BME280;58315;53.336;55.932;2022-08-19T04:18:05;101264.69;;;31.42;21.32
70730;BME280;58315;53.336;55.932;2022-08-19T04:20:39;101268.22;;;32.13;19.95
70730;BME280;58315;53.336;55.932;2022-08-19T04:23:05;101270.56;;;31.28;19.94
70730;BME280;58315;53.336;55.932;2022-08-19T04:25:39;101278.72;;;31.93;20.11
70730;BME280;58315;53.336;55.932;2022-08-19T04:28:06;101284.13;;;32.40;20.21
70730;BME280;58315;53.336;55.932;2022-08-19T04:30:41;101284.88;;;33.21;19.46
70730;BME280;58315;53.336;55.932;2022-08-19T04:33:07;101282.03;;;33.67;19.40
70730;BME280;58315;53.336;55.932;2022-08-19T04:35:40;101285.81;;;34.16;18.81
70730;BME280;58315;53.336;55.932;2022-08-19T04:38:07;101282.28;;;33.82;18.70
70730;BME280;58315;53.336;55.932;2022-08-19T04:40:39;101286.59;;;33.10;18.99
70730;BME280;58315;53.336;55.932;2022-08-19T04:43:24;101287.00;;;33.19;18.97
70730;BME280;58315;53.336;55.932;2022-08-19T04:45:50;101285.94;;;33.37;19.05
70730;BME280;58315;53.336;55.932;2022-08-19T04:48:17;101289.84;;;33.75;18.99
70730;BME280;58315;53.336;55.932;2022-08-19T04:50:47;101289.59;;;34.37;18.61
70730;BME280;58315;53.336;55.932;2022-08-19T04:53:14;101292.44;;;34.64;17.75
70730;BME280;58315;53.336;55.932;2022-08-19T04:55:41;101292.16;;;34.00;18.51
70730;BME280;58315;53.336;55.932;2022-08-19T04:58:07;101293.31;;;34.48;18.36
70730;BME280;58315;53.336;55.932;2022-08-19T05:00:33;101294.66;;;33.84;18.17
70730;BME280;58315;53.336;55.932;2022-08-19T05:03:01;101286.88;;;34.37;18.54
70730;BME280;58315;53.336;55.932;2022-08-19T05:05:28;101300.28;;;35.05;18.02
70730;BME280;58315;53.336;55.932;2022-08-19T05:07:54;101300.63;;;35.40;18.11
70730;BME280;58315;53.336;55.932;2022-08-19T05:10:21;101299.00;;;34.85;17.84
70730;BME280;58315;53.336;55.932;2022-08-19T05:12:47;101302.19;;;34.33;18.01
70730;BME280;58315;53.336;55.932;2022-08-19T05:15:13;101295.34;;;34.52;17.99
70730;BME280;58315;53.336;55.932;2022-08-19T05:17:39;101292.44;;;34.42;17.90
70730;BME280;58315;53.336;55.932;2022-08-19T05:20:25;101293.59;;;34.24;18.19
70730;BME280;58315;53.336;55.932;2022-08-19T05:23:11;101291.97;;;34.72;17.80
70730;BME280;58315;53.336;55.932;2022-08-19T05:25:41;101293.69;;;34.78;18.15
70730;BME280;58315;53.336;55.932;2022-08-19T05:28:07;101291.78;;;35.38;17.58
70730;BME280;58315;53.336;55.932;2022-08-19T05:30:33;101290.84;;;34.68;17.72
70730;BME280;58315;53.336;55.932;2022-08-19T05:32:59;101283.94;;;35.20;17.71
70730;BME280;58315;53.336;55.932;2022-08-19T05:35:25;101294.59;;;34.62;17.65
70730;BME280;58315;53.336;55.932;2022-08-19T05:37:51;101294.59;;;34.18;17.72
70730;BME280;58315;53.336;55.932;2022-08-19T05:40:21;101291.91;;;33.34;18.34
70730;BME280;58315;53.336;55.932;2022-08-19T05:42:48;101288.69;;;33.37;18.85
70730;BME280;58315;53.336;55.932;2022-08-19T05:45:15;101288.28;;;33.28;18.50
70730;BME280;58315;53.336;55.932;2022-08-19T05:47:41;101293.50;;;33.80;18.69
70730;BME280;58315;53.336;55.932;2022-08-19T05:50:09;101295.47;;;35.17;18.44
70730;BME280;58315;53.336;55.932;2022-08-19T05:52:39;101293.97;;;36.16;17.65
70730;BME280;58315;53.336;55.932;2022-08-19T05:55:05;101291.22;;;36.11;17.38
70730;BME280;58315;53.336;55.932;2022-08-19T05:57:31;101293.63;;;35.60;17.16
70730;BME280;58315;53.336;55.932;2022-08-19T06:00:00;101290.56;;;34.26;18.02
70730;BME280;58315;53.336;55.932;2022-08-19T06:02:37;101289.16;;;33.34;18.32
70730;BME280;58315;53.336;55.932;2022-08-19T06:05:06;101291.78;;;33.57;18.62
70730;BME280;58315;53.336;55.932;2022-08-19T06:07:36;101294.00;;;33.44;18.65
70730;BME280;58315;53.336;55.932;2022-08-19T06:10:05;101297.78;;;32.40;19.26
70730;BME280;58315;53.336;55.932;2022-08-19T06:12:33;101293.81;;;31.96;19.69
70730;BME280;58315;53.336;55.932;2022-08-19T06:15:07;101287.59;;;31.53;19.78
70730;BME280;58315;53.336;55.932;2022-08-19T06:17:34;101284.88;;;31.11;20.11
70730;BME280;58315;53.336;55.932;2022-08-19T06:20:03;101282.34;;;30.49;20.42
70730;BME280;58315;53.336;55.932;2022-08-19T06:22:29;101286.34;;;29.92;21.08
70730;BME280;58315;53.336;55.932;2022-08-19T06:24:55;101280.88;;;29.48;21.91
70730;BME280;58315;53.336;55.932;2022-08-19T06:27:22;101274.47;;;28.66;22.71
70730;BME280;58315;53.336;55.932;2022-08-19T06:29:48;101277.63;;;27.78;22.83
70730;BME280;58315;53.336;55.932;2022-08-19T06:32:17;101280.38;;;27.32;23.81
70730;BME280;58315;53.336;55.932;2022-08-19T06:34:44;101276.66;;;26.72;24.08
70730;BME280;58315;53.336;55.932;2022-08-19T06:37:13;101258.56;;;26.37;24.54
70730;BME280;58315;53.336;55.932;2022-08-19T06:39:41;101257.81;;;26.09;24.62
70730;BME280;58315;53.336;55.932;2022-08-19T06:42:08;101259.44;;;25.75;25.30
70730;BME280;58315;53.336;55.932;2022-08-19T06:44:40;101268.38;;;25.47;25.83
70730;BME280;58315;53.336;55.932;2022-08-19T06:47:08;101268.72;;;25.38;25.76
70730;BME280;58315;53.336;55.932;2022-08-19T06:49:35;101267.56;;;25.25;25.88
70730;BME280;58315;53.336;55.932;2022-08-19T06:52:02;101270.88;;;25.06;26.04
70730;BME280;58315;53.336;55.932;2022-08-19T06:54:29;101261.34;;;24.89;26.12
70730;BME280;58315;53.336;55.932;2022-08-19T06:57:00;101270.69;;;25.08;26.61
70730;BME280;58315;53.336;55.932;2022-08-19T06:59:31;101270.47;;;25.24;26.39
70730;BME280;58315;53.336;55.932;2022-08-19T07:02:04;101277.41;;;24.90;26.81
70730;BME280;58315;53.336;55.932;2022-08-19T07:04:34;101273.66;;;24.55;26.83
70730;BME280;58315;53.336;55.932;2022-08-19T07:07:05;101270.38;;;24.60;27.34
70730;BME280;58315;53.336;55.932;2022-08-19T07:09:35;101280.19;;;24.82;26.80
70730;BME280;58315;53.336;55.932;2022-08-19T07:12:04;101275.69;;;24.89;26.86
70730;BME280;58315;53.336;55.932;2022-08-19T07:14:33;101270.06;;;25.06;26.67
70730;BME280;58315;53.336;55.932;2022-08-19T07:17:04;101270.63;;;25.16;26.35
70730;BME280;58315;53.336;55.932;2022-08-19T07:19:31;101278.13;;;25.42;25.78
70730;BME280;58315;53.336;55.932;2022-08-19T07:21:58;101281.81;;;25.34;26.14
70730;BME280;58315;53.336;55.932;2022-08-19T07:24:26;101278.44;;;25.11;26.41
70730;BME280;58315;53.336;55.932;2022-08-19T07:26:56;101270.63;;;25.01;26.93
70730;BME280;58315;53.336;55.932;2022-08-19T07:29:27;101272.47;;;25.00;26.49
70730;BME280;58315;53.336;55.932;2022-08-19T07:31:54;101269.31;;;24.97;26.75
70730;BME280;58315;53.336;55.932;2022-08-19T07:34:23;101262.06;;;25.12;26.72
70730;BME280;58315;53.336;55.932;2022-08-19T07:36:50;101269.56;;;25.17;27.05
70730;BME280;58315;53.336;55.932;2022-08-19T07:39:28;101272.66;;;25.14;26.70
70730;BME280;58315;53.336;55.932;2022-08-19T07:41:57;101275.88;;;25.24;26.61
70730;BME280;58315;53.336;55.932;2022-08-19T07:44:24;101273.69;;;25.34;26.29
70730;BME280;58315;53.336;55.932;2022-08-19T07:46:54;101271.91;;;25.20;26.57
70730;BME280;58315;53.336;55.932;2022-08-19T07:49:22;101282.38;;;25.30;26.42
70730;BME280;58315;53.336;55.932;2022-08-19T07:51:58;101272.66;;;25.35;26.20
70730;BME280;58315;53.336;55.932;2022-08-19T07:54:26;101281.31;;;25.09;26.72
70730;BME280;58315;53.336;55.932;2022-08-19T07:56:53;101286.19;;;25.14;26.35
70730;BME280;58315;53.336;55.932;2022-08-19T07:59:20;101278.25;;;25.34;26.59
70730;BME280;58315;53.336;55.932;2022-08-19T08:01:46;101279.72;;;25.58;25.96
70730;BME280;58315;53.336;55.932;2022-08-19T08:04:13;101279.72;;;25.15;26.90
70730;BME280;58315;53.336;55.932;2022-08-19T08:06:58;101278.91;;;25.14;26.55
70730;BME280;58315;53.336;55.932;2022-08-19T08:09:43;101280.97;;;24.76;26.71
70730;BME280;58315;53.336;55.932;2022-08-19T08:12:18;101281.88;;;24.83;27.15
70730;BME280;58315;53.336;55.932;2022-08-19T08:14:50;101277.41;;;24.90;26.92
70730;BME280;58315;53.336;55.932;2022-08-19T08:17:19;101282.97;;;24.52;27.41
70730;BME280;58315;53.336;55.932;2022-08-19T08:19:46;101281.66;;;24.48;27.26
70730;BME280;58315;53.336;55.932;2022-08-19T08:22:15;101283.72;;;24.61;27.03
70730;BME280;58315;53.336;55.932;2022-08-19T08:25:03;101283.50;;;24.63;27.08
70730;BME280;58315;53.336;55.932;2022-08-19T08:27:30;101272.03;;;24.61;26.90
70730;BME280;58315;53.336;55.932;2022-08-19T08:29:57;101273.94;;;24.82;26.95
70730;BME280;58315;53.336;55.932;2022-08-19T08:32:23;101266.44;;;24.98;27.09
70730;BME280;58315;53.336;55.932;2022-08-19T08:34:49;101269.50;;;25.32;27.41
70730;BME280;58315;53.336;55.932;2022-08-19T08:37:15;101266.97;;;25.09;26.86
70730;BME280;58315;53.336;55.932;2022-08-19T08:39:41;101278.97;;;24.85;27.24
70730;BME280;58315;53.336;55.932;2022-08-19T08:42:18;101281.97;;;24.75;27.29
70730;BME280;58315;53.336;55.932;2022-08-19T08:45:10;101270.91;;;24.70;27.58
70730;BME280;58315;53.336;55.932;2022-08-19T08:47:41;101274.09;;;24.59;27.54
70730;BME280;58315;53.336;55.932;2022-08-19T08:50:16;101279.13;;;24.62;27.41
70730;BME280;58315;53.336;55.932;2022-08-19T08:52:47;101279.06;;;24.40;27.23
70730;BME280;58315;53.336;55.932;2022-08-19T08:55:23;101268.78;;;24.65;27.53
70730;BME280;58315;53.336;55.932;2022-08-19T09:00:27;101258.28;;;24.56;27.13
70730;BME280;58315;53.336;55.932;2022-08-19T09:02:56;101266.41;;;24.77;27.55
70730;BME280;58315;53.336;55.932;2022-08-19T09:05:39;101264.59;;;24.63;27.00
70730;BME280;58315;53.336;55.932;2022-08-19T09:08:29;101261.50;;;25.02;26.95
70730;BME280;58315;53.336;55.932;2022-08-19T09:10:58;101267.50;;;24.97;27.40
70730;BME280;58315;53.336;55.932;2022-08-19T09:16:04;101274.22;;;25.23;27.01
70730;BME280;58315;53.336;55.932;2022-08-19T09:18:51;101257.75;;;25.03;27.20
70730;BME280;58315;53.336;55.932;2022-08-19T09:21:20;101261.66;;;24.79;27.38
70730;BME280;58315;53.336;55.932;2022-08-19T09:23:48;101272.09;;;24.82;27.21
70730;BME280;58315;53.336;55.932;2022-08-19T09:26:19;101255.25;;;25.01;27.68
70730;BME280;58315;53.336;55.932;2022-08-19T09:28:47;101283.38;;;25.07;27.14
70730;BME280;58315;53.336;55.932;2022-08-19T09:31:17;101267.09;;;24.64;27.53
70730;BME280;58315;53.336;55.932;2022-08-19T09:33:43;101263.13;;;24.82;27.58
70730;BME280;58315;53.336;55.932;2022-08-19T09:36:12;101270.06;;;25.06;28.12
70730;BME280;58315;53.336;55.932;2022-08-19T09:38:39;101252.09;;;24.98;27.40
70730;BME280;58315;53.336;55.932;2022-08-19T09:41:14;101274.94;;;24.95;27.65
70730;BME280;58315;53.336;55.932;2022-08-19T09:43:43;101248.69;;;25.11;27.17
70730;BME280;58315;53.336;55.932;2022-08-19T09:46:09;101254.03;;;25.25;26.76
70730;BME280;58315;53.336;55.932;2022-08-19T09:48:36;101261.34;;;25.53;27.15
70730;BME280;58315;53.336;55.932;2022-08-19T09:51:08;101258.22;;;25.49;26.94
70730;BME280;58315;53.336;55.932;2022-08-19T09:53:35;101264.72;;;25.34;26.82
70730;BME280;58315;53.336;55.932;2022-08-19T09:56:02;101254.63;;;25.42;26.86
70730;BME280;58315;53.336;55.932;2022-08-19T09:58:29;101252.00;;;25.56;26.59
70730;BME280;58315;53.336;55.932;2022-08-19T10:00:57;101261.94;;;25.77;27.08
70730;BME280;58315;53.336;55.932;2022-08-19T10:03:25;101253.91;;;25.62;26.75
70730;BME280;58315;53.336;55.932;2022-08-19T10:05:52;101253.59;;;25.71;26.97
70730;BME280;58315;53.336;55.932;2022-08-19T10:08:22;101248.03;;;25.80;26.77
70730;BME280;58315;53.336;55.932;2022-08-19T10:10:49;101250.06;;;25.78;27.02
70730;BME280;58315;53.336;55.932;2022-08-19T10:13:18;101260.06;;;25.77;26.38
70730;BME280;58315;53.336;55.932;2022-08-19T10:15:48;101246.84;;;25.61;26.65
70730;BME280;58315;53.336;55.932;2022-08-19T10:18:17;101245.91;;;25.75;26.90
70730;BME280;58315;53.336;55.932;2022-08-19T10:20:45;101253.13;;;25.68;27.25
70730;BME280;58315;53.336;55.932;2022-08-19T10:23:12;101255.00;;;25.89;26.96
70730;BME280;58315;53.336;55.932;2022-08-19T10:25:38;101260.53;;;25.81;27.00
70730;BME280;58315;53.336;55.932;2022-08-19T10:28:05;101268.34;;;25.69;26.41
70730;BME280;58315;53.336;55.932;2022-08-19T10:30:32;101266.97;;;25.30;26.96
70730;BME280;58315;53.336;55.932;2022-08-19T10:32:58;101258.47;;;25.33;27.58
70730;BME280;58315;53.336;55.932;2022-08-19T10:35:24;101251.91;;;25.42;27.39
70730;BME280;58315;53.336;55.932;2022-08-19T10:37:55;101253.28;;;25.60;27.46
70730;BME280;58315;53.336;55.932;2022-08-19T10:40:26;101255.94;;;25.81;27.43
70730;BME280;58315;53.336;55.932;2022-08-19T10:42:54;101245.66;;;25.98;27.07
70730;BME280;58315;53.336;55.932;2022-08-19T10:45:22;101247.97;;;25.73;27.10
70730;BME280;58315;53.336;55.932;2022-08-19T10:47:55;101241.28;;;25.69;26.78
70730;BME280;58315;53.336;55.932;2022-08-19T10:50:21;101240.22;;;25.70;27.26
70730;BME280;58315;53.336;55.932;2022-08-19T10:53:07;101244.72;;;25.84;27.39
70730;BME280;58315;53.336;55.932;2022-08-19T10:55:39;101247.72;;;25.96;27.45
70730;BME280;58315;53.336;55.932;2022-08-19T10:58:23;101246.81;;;25.82;27.12
70730;BME280;58315;53.336;55.932;2022-08-19T11:00:53;101238.53;;;25.90;27.41
70730;BME280;58315;53.336;55.932;2022-08-19T11:03:19;101244.03;;;26.10;27.75
70730;BME280;58315;53.336;55.932;2022-08-19T11:05:45;101237.22;;;26.14;27.13
70730;BME280;58315;53.336;55.932;2022-08-19T11:08:11;101235.47;;;26.07;27.05
70730;BME280;58315;53.336;55.932;2022-08-19T11:10:41;101227.59;;;26.12;26.81
70730;BME280;58315;53.336;55.932;2022-08-19T11:13:08;101233.03;;;26.12;27.11
70730;BME280;58315;53.336;55.932;2022-08-19T11:15:34;101237.00;;;26.16;27.11
70730;BME280;58315;53.336;55.932;2022-08-19T11:18:00;101235.97;;;26.17;27.58
70730;BME280;58315;53.336;55.932;2022-08-19T11:20:26;101238.41;;;26.05;26.86
70730;BME280;58315;53.336;55.932;2022-08-19T11:22:52;101229.56;;;25.90;27.04
70730;BME280;58315;53.336;55.932;2022-08-19T11:25:22;101247.56;;;26.04;27.44
70730;BME280;58315;53.336;55.932;2022-08-19T11:27:48;101235.22;;;25.95;27.63
70730;BME280;58315;53.336;55.932;2022-08-19T11:30:16;101230.25;;;25.98;27.52
70730;BME280;58315;53.336;55.932;2022-08-19T11:32:42;101231.75;;;26.08;27.47
70730;BME280;58315;53.336;55.932;2022-08-19T11:35:08;101229.28;;;26.13;27.53
70730;BME280;58315;53.336;55.932;2022-08-19T11:37:36;101237.09;;;25.94;27.40
70730;BME280;58315;53.336;55.932;2022-08-19T11:40:04;101238.97;;;25.94;27.53
70730;BME280;58315;53.336;55.932;2022-08-19T11:42:33;101235.66;;;25.98;27.40
70730;BME280;58315;53.336;55.932;2022-08-19T11:45:18;101243.56;;;25.93;27.68
70730;BME280;58315;53.336;55.932;2022-08-19T11:47:44;101238.31;;;25.92;27.65
70730;BME280;58315;53.336;55.932;2022-08-19T11:50:11;101237.88;;;25.88;27.10
70730;BME280;58315;53.336;55.932;2022-08-19T11:52:37;101237.22;;;25.80;27.45
70730;BME280;58315;53.336;55.932;2022-08-19T11:55:04;101235.00;;;25.90;27.66
70730;BME280;58315;53.336;55.932;2022-08-19T11:57:31;101240.63;;;25.95;27.44
70730;BME280;58315;53.336;55.932;2022-08-19T11:59:56;101233.72;;;25.92;28.10
70730;BME280;58315;53.336;55.932;2022-08-19T12:02:22;101241.94;;;25.78;27.47
70730;BME280;58315;53.336;55.932;2022-08-19T12:04:49;101244.34;;;25.87;27.67
70730;BME280;58315;53.336;55.932;2022-08-19T12:07:15;101238.31;;;25.85;27.21
70730;BME280;58315;53.336;55.932;2022-08-19T12:09:41;101241.00;;;25.85;27.66
70730;BME280;58315;53.336;55.932;2022-08-19T12:12:09;101229.53;;;25.83;27.45
70730;BME280;58315;53.336;55.932;2022-08-19T12:14:35;101235.59;;;25.85;27.79
70730;BME280;58315;53.336;55.932;2022-08-19T12:17:01;101232.44;;;25.82;27.61
70730;BME280;58315;53.336;55.932;2022-08-19T12:19:30;101238.25;;;25.79;28.01
70730;BME280;58315;53.336;55.932;2022-08-19T12:22:00;101229.44;;;25.77;28.17
70730;BME280;58315;53.336;55.932;2022-08-19T12:24:31;101235.25;;;25.73;28.51
70730;BME280;58315;53.336;55.932;2022-08-19T12:26:58;101230.66;;;25.74;28.64
70730;BME280;58315;53.336;55.932;2022-08-19T12:29:27;101226.97;;;25.75;28.58
70730;BME280;58315;53.336;55.932;2022-08-19T12:31:57;101220.72;;;25.74;28.43
70730;BME280;58315;53.336;55.932;2022-08-19T12:34:30;101222.38;;;25.76;28.29
70730;BME280;58315;53.336;55.932;2022-08-19T12:37:03;101217.44;;;25.79;28.65
70730;BME280;58315;53.336;55.932;2022-08-19T12:39:34;101225.81;;;25.63;28.46
70730;BME280;58315;53.336;55.932;2022-08-19T12:42:00;101222.09;;;25.64;28.98
70730;BME280;58315;53.336;55.932;2022-08-19T12:44:26;101218.16;;;25.38;28.90
70730;BME280;58315;53.336;55.932;2022-08-19T12:46:52;101216.53;;;25.44;28.83
70730;BME280;58315;53.336;55.932;2022-08-19T12:49:18;101211.25;;;25.36;29.04
70730;BME280;58315;53.336;55.932;2022-08-19T12:51:44;101205.47;;;25.39;28.97
70730;BME280;58315;53.336;55.932;2022-08-19T12:54:11;101210.81;;;25.32;29.04
70730;BME280;58315;53.336;55.932;2022-08-19T12:56:37;101208.25;;;25.24;29.10
70730;BME280;58315;53.336;55.932;2022-08-19T12:59:04;101211.31;;;25.42;28.91
70730;BME280;58315;53.336;55.932;2022-08-19T13:01:30;101213.75;;;25.37;28.72
70730;BME280;58315;53.336;55.932;2022-08-19T13:03:58;101205.06;;;25.42;28.87
70730;BME280;58315;53.336;55.932;2022-08-19T13:06:25;101194.72;;;25.52;28.84
70730;BME280;58315;53.336;55.932;2022-08-19T13:08:52;101200.50;;;25.42;28.82